sensor_id;sensor_type;location;lat;lon;timestamp;P1;durP1;ratioP1;P2;durP2;ratioP2
25988;SDS011;13778;48.236;9.894;2023-05-24T00:00:02;7.40;;;6.70;;
25988;SDS011;13778;48.236;9.894;2023-05-24T00:02:54;7.60;;;6.80;;
25988;SDS011;13778;48.236;9.894;2023-05-24T00:05:45;7.45;;;6.65;;
25988;SDS011;13778;48.236;9.894;2023-05-24T00:08:36;7.00;;;6.13;;
25988;SDS011;13778;48.236;9.894;2023-05-24T00:11:26;7.05;;;6.35;;
25988;SDS011;13778;48.236;9.894;2023-05-24T00:14:16;7.70;;;6.90;;
25988;SDS011;13778;48.236;9.894;2023-05-24T00:17:07;9.57;;;6.72;;
25988;SDS011;13778;48.236;9.894;2023-05-24T00:19:59;6.95;;;6.20;;
25988;SDS011;13778;48.236;9.894;2023-05-24T00:22:49;6.82;;;6.07;;
25988;SDS011;13778;48.236;9.894;2023-05-24T00:25:39;8.23;;;6.25;;
25988;SDS011;13778;48.236;9.894;2023-05-24T00:28:30;7.15;;;6.53;;
25988;SDS011;13778;48.236;9.894;2023-05-24T00:31:21;7.93;;;7.07;;
25988;SDS011;13778;48.236;9.894;2023-05-24T00:34:11;7.45;;;6.75;;
25988;SDS011;13778;48.236;9.894;2023-05-24T00:37:03;8.68;;;7.03;;
25988;SDS011;13778;48.236;9.894;2023-05-24T00:39:55;10.02;;;7.90;;
25988;SDS011;13778;48.236;9.894;2023-05-24T00:42:46;9.13;;;7.22;;
25988;SDS011;13778;48.236;9.894;2023-05-24T00:45:36;8.43;;;7.15;;
25988;SDS011;13778;48.236;9.894;2023-05-24T00:48:27;7.10;;;6.40;;
25988;SDS011;13778;48.236;9.894;2023-05-24T00:51:17;8.00;;;7.13;;
25988;SDS011;13778;48.236;9.894;2023-05-24T00:54:09;8.23;;;7.03;;
25988;SDS011;13778;48.236;9.894;2023-05-24T00:57:02;8.50;;;7.28;;
25988;SDS011;13778;48.236;9.894;2023-05-24T00:59:52;8.00;;;7.13;;
25988;SDS011;13778;48.236;9.894;2023-05-24T01:02:43;7.85;;;7.05;;
25988;SDS011;13778;48.236;9.894;2023-05-24T01:05:36;8.57;;;7.68;;
25988;SDS011;13778;48.236;9.894;2023-05-24T01:08:32;7.90;;;7.10;;
25988;SDS011;13778;48.236;9.894;2023-05-24T01:11:28;8.35;;;7.47;;
25988;SDS011;13778;48.236;9.894;2023-05-24T01:14:25;9.25;;;7.50;;
25988;SDS011;13778;48.236;9.894;2023-05-24T01:17:17;7.72;;;6.88;;
25988;SDS011;13778;48.236;9.894;2023-05-24T01:23:20;10.82;;;8.82;;
25988;SDS011;13778;48.236;9.894;2023-05-24T01:26:28;10.73;;;8.93;;
25988;SDS011;13778;48.236;9.894;2023-05-24T01:29:22;9.98;;;8.98;;
25988;SDS011;13778;48.236;9.894;2023-05-24T01:32:13;12.32;;;9.18;;
25988;SDS011;13778;48.236;9.894;2023-05-24T01:35:04;11.50;;;8.80;;
25988;SDS011;13778;48.236;9.894;2023-05-24T01:37:54;9.35;;;8.23;;
25988;SDS011;13778;48.236;9.894;2023-05-24T01:40:45;9.93;;;8.60;;
25988;SDS011;13778;48.236;9.894;2023-05-24T01:46:34;10.38;;;8.73;;
25988;SDS011;13778;48.236;9.894;2023-05-24T01:49:26;11.75;;;8.38;;
25988;SDS011;13778;48.236;9.894;2023-05-24T01:52:19;8.95;;;7.25;;
25988;SDS011;13778;48.236;9.894;2023-05-24T01:55:12;10.10;;;7.65;;
25988;SDS011;13778;48.236;9.894;2023-05-24T01:58:03;9.27;;;7.18;;
25988;SDS011;13778;48.236;9.894;2023-05-24T02:00:54;9.00;;;7.40;;
25988;SDS011;13778;48.236;9.894;2023-05-24T02:03:46;11.88;;;7.32;;
25988;SDS011;13778;48.236;9.894;2023-05-24T02:06:37;8.60;;;6.90;;
25988;SDS011;13778;48.236;9.894;2023-05-24T02:09:27;7.75;;;6.50;;
25988;SDS011;13778;48.236;9.894;2023-05-24T02:12:18;9.20;;;7.25;;
25988;SDS011;13778;48.236;9.894;2023-05-24T02:15:09;8.23;;;6.50;;
25988;SDS011;13778;48.236;9.894;2023-05-24T02:18:02;8.40;;;6.38;;
25988;SDS011;13778;48.236;9.894;2023-05-24T02:20:57;7.68;;;6.88;;
25988;SDS011;13778;48.236;9.894;2023-05-24T02:26:38;11.13;;;7.45;;
25988;SDS011;13778;48.236;9.894;2023-05-24T02:29:28;9.80;;;7.10;;
25988;SDS011;13778;48.236;9.894;2023-05-24T02:32:19;10.18;;;6.53;;
25988;SDS011;13778;48.236;9.894;2023-05-24T02:35:09;11.80;;;6.72;;
25988;SDS011;13778;48.236;9.894;2023-05-24T02:38:01;11.45;;;7.07;;
25988;SDS011;13778;48.236;9.894;2023-05-24T02:40:54;10.73;;;6.70;;
25988;SDS011;13778;48.236;9.894;2023-05-24T02:43:45;11.38;;;7.22;;
25988;SDS011;13778;48.236;9.894;2023-05-24T02:46:35;12.20;;;7.03;;
25988;SDS011;13778;48.236;9.894;2023-05-24T02:49:26;8.77;;;7.20;;
25988;SDS011;13778;48.236;9.894;2023-05-24T02:52:16;9.05;;;7.03;;
25988;SDS011;13778;48.236;9.894;2023-05-24T02:55:11;10.20;;;6.45;;
25988;SDS011;13778;48.236;9.894;2023-05-24T02:58:01;12.70;;;7.57;;
25988;SDS011;13778;48.236;9.894;2023-05-24T03:00:51;9.85;;;6.43;;
25988;SDS011;13778;48.236;9.894;2023-05-24T03:03:42;10.05;;;7.07;;
25988;SDS011;13778;48.236;9.894;2023-05-24T03:06:32;11.68;;;7.38;;
25988;SDS011;13778;48.236;9.894;2023-05-24T03:09:23;10.13;;;7.30;;
25988;SDS011;13778;48.236;9.894;2023-05-24T03:12:15;13.88;;;8.25;;
25988;SDS011;13778;48.236;9.894;2023-05-24T03:17:55;9.85;;;7.25;;
25988;SDS011;13778;48.236;9.894;2023-05-24T03:20:46;8.95;;;6.97;;
25988;SDS011;13778;48.236;9.894;2023-05-24T03:23:36;10.80;;;7.20;;
25988;SDS011;13778;48.236;9.894;2023-05-24T03:26:27;12.90;;;8.00;;
25988;SDS011;13778;48.236;9.894;2023-05-24T03:29:19;10.00;;;7.43;;
25988;SDS011;13778;48.236;9.894;2023-05-24T03:32:09;12.88;;;8.15;;
25988;SDS011;13778;48.236;9.894;2023-05-24T03:34:59;10.07;;;7.78;;
25988;SDS011;13778;48.236;9.894;2023-05-24T03:37:50;9.07;;;7.10;;
25988;SDS011;13778;48.236;9.894;2023-05-24T03:40:41;9.82;;;7.28;;
25988;SDS011;13778;48.236;9.894;2023-05-24T03:43:31;11.70;;;7.63;;
25988;SDS011;13778;48.236;9.894;2023-05-24T03:46:23;11.60;;;7.32;;
25988;SDS011;13778;48.236;9.894;2023-05-24T03:52:04;9.95;;;7.03;;
25988;SDS011;13778;48.236;9.894;2023-05-24T03:54:54;14.15;;;7.47;;
25988;SDS011;13778;48.236;9.894;2023-05-24T03:57:45;19.52;;;8.30;;
25988;SDS011;13778;48.236;9.894;2023-05-24T04:00:35;12.95;;;8.13;;
25988;SDS011;13778;48.236;9.894;2023-05-24T04:03:27;15.65;;;7.75;;
25988;SDS011;13778;48.236;9.894;2023-05-24T04:06:18;10.95;;;7.97;;
25988;SDS011;13778;48.236;9.894;2023-05-24T04:09:08;14.65;;;7.78;;
25988;SDS011;13778;48.236;9.894;2023-05-24T04:11:59;12.80;;;7.63;;
25988;SDS011;13778;48.236;9.894;2023-05-24T04:14:50;13.20;;;7.20;;
25988;SDS011;13778;48.236;9.894;2023-05-24T04:17:41;11.20;;;6.80;;
25988;SDS011;13778;48.236;9.894;2023-05-24T04:20:33;8.65;;;6.97;;
25988;SDS011;13778;48.236;9.894;2023-05-24T04:23:23;11.48;;;8.27;;
25988;SDS011;13778;48.236;9.894;2023-05-24T04:26:14;14.82;;;7.85;;
25988;SDS011;13778;48.236;9.894;2023-05-24T04:29:05;11.07;;;7.30;;
25988;SDS011;13778;48.236;9.894;2023-05-24T04:31:57;13.55;;;7.65;;
25988;SDS011;13778;48.236;9.894;2023-05-24T04:34:48;10.02;;;7.63;;
25988;SDS011;13778;48.236;9.894;2023-05-24T04:37:42;21.33;;;7.88;;
25988;SDS011;13778;48.236;9.894;2023-05-24T04:40:32;11.60;;;7.13;;
25988;SDS011;13778;48.236;9.894;2023-05-24T04:43:23;11.73;;;6.65;;
25988;SDS011;13778;48.236;9.894;2023-05-24T04:46:14;10.40;;;5.88;;
25988;SDS011;13778;48.236;9.894;2023-05-24T04:49:05;18.50;;;6.55;;
25988;SDS011;13778;48.236;9.894;2023-05-24T04:51:56;13.00;;;6.20;;
25988;SDS011;13778;48.236;9.894;2023-05-24T04:54:48;13.18;;;6.68;;
25988;SDS011;13778;48.236;9.894;2023-05-24T05:00:29;13.35;;;6.65;;
25988;SDS011;13778;48.236;9.894;2023-05-24T05:03:19;11.07;;;5.15;;
25988;SDS011;13778;48.236;9.894;2023-05-24T05:06:10;13.80;;;6.78;;
25988;SDS011;13778;48.236;9.894;2023-05-24T05:09:00;19.10;;;7.35;;
25988;SDS011;13778;48.236;9.894;2023-05-24T05:11:52;16.50;;;7.70;;
25988;SDS011;13778;48.236;9.894;2023-05-24T05:14:42;15.07;;;5.88;;
25988;SDS011;13778;48.236;9.894;2023-05-24T05:17:33;12.15;;;5.95;;
25988;SDS011;13778;48.236;9.894;2023-05-24T05:20:23;14.48;;;5.93;;
25988;SDS011;13778;48.236;9.894;2023-05-24T05:23:14;10.45;;;5.53;;
25988;SDS011;13778;48.236;9.894;2023-05-24T05:26:05;14.52;;;6.28;;
25988;SDS011;13778;48.236;9.894;2023-05-24T05:28:57;10.43;;;5.97;;
25988;SDS011;13778;48.236;9.894;2023-05-24T05:31:47;16.42;;;6.20;;
25988;SDS011;13778;48.236;9.894;2023-05-24T05:34:38;14.43;;;5.53;;
25988;SDS011;13778;48.236;9.894;2023-05-24T05:37:28;21.73;;;6.60;;
25988;SDS011;13778;48.236;9.894;2023-05-24T05:40:19;12.38;;;5.60;;
25988;SDS011;13778;48.236;9.894;2023-05-24T05:43:09;19.00;;;5.75;;
25988;SDS011;13778;48.236;9.894;2023-05-24T05:46:01;14.77;;;6.03;;
25988;SDS011;13778;48.236;9.894;2023-05-24T05:48:51;12.25;;;5.55;;
25988;SDS011;13778;48.236;9.894;2023-05-24T05:51:42;12.82;;;5.35;;
25988;SDS011;13778;48.236;9.894;2023-05-24T05:54:32;15.35;;;5.18;;
25988;SDS011;13778;48.236;9.894;2023-05-24T05:57:23;12.38;;;5.80;;
25988;SDS011;13778;48.236;9.894;2023-05-24T06:00:14;11.10;;;5.47;;
25988;SDS011;13778;48.236;9.894;2023-05-24T06:03:05;19.77;;;5.88;;
25988;SDS011;13778;48.236;9.894;2023-05-24T06:08:46;11.20;;;5.53;;
25988;SDS011;13778;48.236;9.894;2023-05-24T06:11:36;18.95;;;5.82;;
25988;SDS011;13778;48.236;9.894;2023-05-24T06:14:31;14.30;;;6.25;;
25988;SDS011;13778;48.236;9.894;2023-05-24T06:17:22;17.52;;;6.50;;
25988;SDS011;13778;48.236;9.894;2023-05-24T06:20:14;12.85;;;6.75;;
25988;SDS011;13778;48.236;9.894;2023-05-24T06:23:05;14.00;;;6.60;;
25988;SDS011;13778;48.236;9.894;2023-05-24T06:25:55;14.38;;;6.32;;
25988;SDS011;13778;48.236;9.894;2023-05-24T06:28:46;14.48;;;6.70;;
25988;SDS011;13778;48.236;9.894;2023-05-24T06:31:36;11.75;;;5.45;;
25988;SDS011;13778;48.236;9.894;2023-05-24T06:34:27;8.88;;;5.03;;
25988;SDS011;13778;48.236;9.894;2023-05-24T06:37:18;20.13;;;5.85;;
25988;SDS011;13778;48.236;9.894;2023-05-24T06:40:13;15.18;;;5.55;;
25988;SDS011;13778;48.236;9.894;2023-05-24T06:43:04;17.67;;;5.57;;
25988;SDS011;13778;48.236;9.894;2023-05-24T06:45:54;16.02;;;5.53;;
25988;SDS011;13778;48.236;9.894;2023-05-24T06:48:45;16.92;;;6.25;;
25988;SDS011;13778;48.236;9.894;2023-05-24T06:51:36;15.05;;;7.18;;
25988;SDS011;13778;48.236;9.894;2023-05-24T06:54:28;14.50;;;5.65;;
25988;SDS011;13778;48.236;9.894;2023-05-24T06:57:18;12.93;;;5.88;;
25988;SDS011;13778;48.236;9.894;2023-05-24T07:00:09;17.25;;;6.93;;
25988;SDS011;13778;48.236;9.894;2023-05-24T07:03:00;15.68;;;6.53;;
25988;SDS011;13778;48.236;9.894;2023-05-24T07:05:51;18.73;;;6.68;;
25988;SDS011;13778;48.236;9.894;2023-05-24T07:08:41;20.15;;;7.22;;
25988;SDS011;13778;48.236;9.894;2023-05-24T07:11:33;25.10;;;7.28;;
25988;SDS011;13778;48.236;9.894;2023-05-24T07:17:15;16.83;;;7.13;;
25988;SDS011;13778;48.236;9.894;2023-05-24T07:20:06;20.17;;;6.68;;
25988;SDS011;13778;48.236;9.894;2023-05-24T07:22:58;20.48;;;6.97;;
25988;SDS011;13778;48.236;9.894;2023-05-24T07:25:49;23.10;;;6.85;;
25988;SDS011;13778;48.236;9.894;2023-05-24T07:28:41;14.82;;;7.22;;
25988;SDS011;13778;48.236;9.894;2023-05-24T07:34:23;17.53;;;7.07;;
25988;SDS011;13778;48.236;9.894;2023-05-24T07:37:15;16.33;;;5.82;;
25988;SDS011;13778;48.236;9.894;2023-05-24T07:40:05;13.15;;;6.53;;
25988;SDS011;13778;48.236;9.894;2023-05-24T07:42:59;18.17;;;6.80;;
25988;SDS011;13778;48.236;9.894;2023-05-24T07:45:51;14.63;;;6.57;;
25988;SDS011;13778;48.236;9.894;2023-05-24T07:48:41;26.02;;;7.30;;
25988;SDS011;13778;48.236;9.894;2023-05-24T07:51:31;15.98;;;6.28;;
25988;SDS011;13778;48.236;9.894;2023-05-24T07:54:22;15.40;;;6.47;;
25988;SDS011;13778;48.236;9.894;2023-05-24T07:57:12;13.18;;;6.72;;
25988;SDS011;13778;48.236;9.894;2023-05-24T08:00:03;18.10;;;6.88;;
25988;SDS011;13778;48.236;9.894;2023-05-24T08:03:02;12.60;;;6.38;;
25988;SDS011;13778;48.236;9.894;2023-05-24T08:05:53;18.58;;;6.05;;
25988;SDS011;13778;48.236;9.894;2023-05-24T08:08:43;17.30;;;5.90;;
25988;SDS011;13778;48.236;9.894;2023-05-24T08:14:25;13.38;;;6.82;;
25988;SDS011;13778;48.236;9.894;2023-05-24T08:17:16;19.73;;;6.55;;
25988;SDS011;13778;48.236;9.894;2023-05-24T08:20:08;12.25;;;6.38;;
25988;SDS011;13778;48.236;9.894;2023-05-24T08:23:02;15.65;;;6.35;;
25988;SDS011;13778;48.236;9.894;2023-05-24T08:25:52;18.95;;;6.97;;
25988;SDS011;13778;48.236;9.894;2023-05-24T08:28:43;19.30;;;7.10;;
25988;SDS011;13778;48.236;9.894;2023-05-24T08:31:33;19.23;;;7.45;;
25988;SDS011;13778;48.236;9.894;2023-05-24T08:34:24;13.40;;;7.07;;
25988;SDS011;13778;48.236;9.894;2023-05-24T08:37:16;15.80;;;6.00;;
25988;SDS011;13778;48.236;9.894;2023-05-24T08:40:08;13.68;;;6.70;;
25988;SDS011;13778;48.236;9.894;2023-05-24T08:43:00;13.32;;;7.07;;
25988;SDS011;13778;48.236;9.894;2023-05-24T08:45:50;15.13;;;7.70;;
25988;SDS011;13778;48.236;9.894;2023-05-24T08:48:43;20.48;;;7.57;;
25988;SDS011;13778;48.236;9.894;2023-05-24T08:51:33;13.73;;;7.32;;
25988;SDS011;13778;48.236;9.894;2023-05-24T08:54:27;16.02;;;7.38;;
25988;SDS011;13778;48.236;9.894;2023-05-24T08:57:19;13.88;;;7.82;;
25988;SDS011;13778;48.236;9.894;2023-05-24T09:00:11;18.85;;;7.57;;
25988;SDS011;13778;48.236;9.894;2023-05-24T09:03:01;12.35;;;6.93;;
25988;SDS011;13778;48.236;9.894;2023-05-24T09:05:53;13.32;;;7.03;;
25988;SDS011;13778;48.236;9.894;2023-05-24T09:08:44;16.05;;;7.32;;
25988;SDS011;13778;48.236;9.894;2023-05-24T09:11:36;18.05;;;7.32;;
25988;SDS011;13778;48.236;9.894;2023-05-24T09:14:27;17.35;;;7.47;;
25988;SDS011;13778;48.236;9.894;2023-05-24T09:17:18;18.38;;;7.95;;
25988;SDS011;13778;48.236;9.894;2023-05-24T09:22:59;20.83;;;8.65;;
25988;SDS011;13778;48.236;9.894;2023-05-24T09:25:51;15.25;;;7.35;;
25988;SDS011;13778;48.236;9.894;2023-05-24T09:28:43;16.92;;;7.47;;
25988;SDS011;13778;48.236;9.894;2023-05-24T09:31:38;15.45;;;6.82;;
25988;SDS011;13778;48.236;9.894;2023-05-24T09:34:29;20.77;;;6.95;;
25988;SDS011;13778;48.236;9.894;2023-05-24T09:37:26;15.07;;;7.13;;
25988;SDS011;13778;48.236;9.894;2023-05-24T09:40:18;18.58;;;7.75;;
25988;SDS011;13778;48.236;9.894;2023-05-24T09:43:09;18.88;;;6.88;;
25988;SDS011;13778;48.236;9.894;2023-05-24T09:46:02;16.15;;;6.38;;
25988;SDS011;13778;48.236;9.894;2023-05-24T09:48:56;13.68;;;6.82;;
25988;SDS011;13778;48.236;9.894;2023-05-24T09:51:46;12.95;;;6.53;;
25988;SDS011;13778;48.236;9.894;2023-05-24T09:54:37;13.57;;;6.95;;
25988;SDS011;13778;48.236;9.894;2023-05-24T09:57:29;12.15;;;7.82;;
25988;SDS011;13778;48.236;9.894;2023-05-24T10:00:20;15.43;;;8.37;;
25988;SDS011;13778;48.236;9.894;2023-05-24T10:03:12;19.17;;;7.38;;
25988;SDS011;13778;48.236;9.894;2023-05-24T10:11:45;12.43;;;6.82;;
25988;SDS011;13778;48.236;9.894;2023-05-24T10:14:37;13.65;;;7.15;;
25988;SDS011;13778;48.236;9.894;2023-05-24T10:17:27;16.27;;;7.35;;
25988;SDS011;13778;48.236;9.894;2023-05-24T10:20:19;12.90;;;6.20;;
25988;SDS011;13778;48.236;9.894;2023-05-24T10:23:12;21.25;;;7.65;;
25988;SDS011;13778;48.236;9.894;2023-05-24T10:26:04;14.40;;;7.35;;
25988;SDS011;13778;48.236;9.894;2023-05-24T10:28:58;15.88;;;6.53;;
25988;SDS011;13778;48.236;9.894;2023-05-24T10:31:50;13.45;;;6.68;;
25988;SDS011;13778;48.236;9.894;2023-05-24T10:34:42;13.25;;;7.22;;
25988;SDS011;13778;48.236;9.894;2023-05-24T10:37:34;22.13;;;6.75;;
25988;SDS011;13778;48.236;9.894;2023-05-24T10:40:25;21.25;;;7.57;;
25988;SDS011;13778;48.236;9.894;2023-05-24T10:43:16;14.65;;;6.55;;
25988;SDS011;13778;48.236;9.894;2023-05-24T10:46:07;14.18;;;6.28;;
25988;SDS011;13778;48.236;9.894;2023-05-24T10:48:58;18.98;;;6.40;;
25988;SDS011;13778;48.236;9.894;2023-05-24T10:51:48;13.52;;;6.35;;
25988;SDS011;13778;48.236;9.894;2023-05-24T10:54:40;13.45;;;6.93;;
25988;SDS011;13778;48.236;9.894;2023-05-24T10:57:50;11.65;;;7.18;;
25988;SDS011;13778;48.236;9.894;2023-05-24T11:00:41;13.43;;;6.18;;
25988;SDS011;13778;48.236;9.894;2023-05-24T11:03:32;13.02;;;6.75;;
25988;SDS011;13778;48.236;9.894;2023-05-24T11:09:28;17.45;;;6.25;;
25988;SDS011;13778;48.236;9.894;2023-05-24T11:12:19;19.77;;;7.78;;
25988;SDS011;13778;48.236;9.894;2023-05-24T11:15:10;15.10;;;6.80;;
25988;SDS011;13778;48.236;9.894;2023-05-24T11:18:13;12.32;;;6.50;;
25988;SDS011;13778;48.236;9.894;2023-05-24T11:21:05;12.77;;;7.25;;
25988;SDS011;13778;48.236;9.894;2023-05-24T11:23:56;17.60;;;7.53;;
25988;SDS011;13778;48.236;9.894;2023-05-24T11:26:46;13.73;;;6.75;;
25988;SDS011;13778;48.236;9.894;2023-05-24T11:29:42;12.93;;;7.18;;
25988;SDS011;13778;48.236;9.894;2023-05-24T11:32:32;18.30;;;7.47;;
25988;SDS011;13778;48.236;9.894;2023-05-24T11:35:23;17.17;;;7.45;;
25988;SDS011;13778;48.236;9.894;2023-05-24T11:38:16;11.32;;;7.32;;
25988;SDS011;13778;48.236;9.894;2023-05-24T11:41:07;12.15;;;6.88;;
25988;SDS011;13778;48.236;9.894;2023-05-24T11:43:57;13.70;;;7.32;;
25988;SDS011;13778;48.236;9.894;2023-05-24T11:46:55;15.18;;;6.18;;
25988;SDS011;13778;48.236;9.894;2023-05-24T11:49:48;13.32;;;6.20;;
25988;SDS011;13778;48.236;9.894;2023-05-24T11:52:38;9.93;;;6.30;;
25988;SDS011;13778;48.236;9.894;2023-05-24T11:55:29;16.17;;;6.90;;
25988;SDS011;13778;48.236;9.894;2023-05-24T11:58:21;15.93;;;7.10;;
25988;SDS011;13778;48.236;9.894;2023-05-24T12:01:21;23.05;;;8.15;;
25988;SDS011;13778;48.236;9.894;2023-05-24T12:04:13;17.80;;;7.07;;
25988;SDS011;13778;48.236;9.894;2023-05-24T12:09:53;23.38;;;7.10;;
25988;SDS011;13778;48.236;9.894;2023-05-24T12:12:44;16.65;;;7.47;;
25988;SDS011;13778;48.236;9.894;2023-05-24T12:15:35;17.30;;;6.97;;
25988;SDS011;13778;48.236;9.894;2023-05-24T12:18:26;17.15;;;7.28;;
25988;SDS011;13778;48.236;9.894;2023-05-24T12:21:17;18.50;;;6.75;;
25988;SDS011;13778;48.236;9.894;2023-05-24T12:24:09;20.10;;;6.88;;
25988;SDS011;13778;48.236;9.894;2023-05-24T12:27:01;13.90;;;7.00;;
25988;SDS011;13778;48.236;9.894;2023-05-24T12:29:54;13.82;;;7.07;;
25988;SDS011;13778;48.236;9.894;2023-05-24T12:32:45;15.57;;;7.50;;
25988;SDS011;13778;48.236;9.894;2023-05-24T12:35:36;15.60;;;7.10;;
25988;SDS011;13778;48.236;9.894;2023-05-24T12:38:27;17.20;;;7.50;;
25988;SDS011;13778;48.236;9.894;2023-05-24T12:41:20;15.10;;;6.35;;
25988;SDS011;13778;48.236;9.894;2023-05-24T12:44:11;16.95;;;7.13;;
25988;SDS011;13778;48.236;9.894;2023-05-24T12:47:02;11.52;;;6.55;;
25988;SDS011;13778;48.236;9.894;2023-05-24T12:49:53;12.00;;;6.30;;
25988;SDS011;13778;48.236;9.894;2023-05-24T12:52:44;13.63;;;6.78;;
25988;SDS011;13778;48.236;9.894;2023-05-24T12:55:37;13.30;;;7.50;;
25988;SDS011;13778;48.236;9.894;2023-05-24T12:58:27;14.55;;;6.90;;
25988;SDS011;13778;48.236;9.894;2023-05-24T13:01:18;15.80;;;6.97;;
25988;SDS011;13778;48.236;9.894;2023-05-24T13:04:08;16.15;;;8.02;;
25988;SDS011;13778;48.236;9.894;2023-05-24T13:07:00;20.60;;;7.95;;
25988;SDS011;13778;48.236;9.894;2023-05-24T13:09:50;19.83;;;7.10;;
25988;SDS011;13778;48.236;9.894;2023-05-24T13:12:42;13.80;;;7.25;;
25988;SDS011;13778;48.236;9.894;2023-05-24T13:18:24;18.17;;;7.32;;
25988;SDS011;13778;48.236;9.894;2023-05-24T13:21:15;22.67;;;7.47;;
25988;SDS011;13778;48.236;9.894;2023-05-24T13:24:06;15.25;;;6.40;;
25988;SDS011;13778;48.236;9.894;2023-05-24T13:26:56;11.93;;;6.50;;
25988;SDS011;13778;48.236;9.894;2023-05-24T13:29:48;12.02;;;6.00;;
25988;SDS011;13778;48.236;9.894;2023-05-24T13:35:29;14.48;;;6.85;;
25988;SDS011;13778;48.236;9.894;2023-05-24T13:38:20;17.50;;;6.82;;
25988;SDS011;13778;48.236;9.894;2023-05-24T13:41:10;17.27;;;6.90;;
25988;SDS011;13778;48.236;9.894;2023-05-24T13:44:00;16.10;;;6.60;;
25988;SDS011;13778;48.236;9.894;2023-05-24T13:46:52;18.30;;;6.60;;
25988;SDS011;13778;48.236;9.894;2023-05-24T13:49:44;12.48;;;5.75;;
25988;SDS011;13778;48.236;9.894;2023-05-24T13:52:35;16.20;;;6.47;;
25988;SDS011;13778;48.236;9.894;2023-05-24T13:55:26;15.95;;;6.13;;
25988;SDS011;13778;48.236;9.894;2023-05-24T13:58:16;11.43;;;6.10;;
25988;SDS011;13778;48.236;9.894;2023-05-24T14:01:07;15.77;;;5.82;;
25988;SDS011;13778;48.236;9.894;2023-05-24T14:04:00;18.10;;;5.60;;
25988;SDS011;13778;48.236;9.894;2023-05-24T14:06:50;16.30;;;6.70;;
25988;SDS011;13778;48.236;9.894;2023-05-24T14:09:41;16.77;;;6.72;;
25988;SDS011;13778;48.236;9.894;2023-05-24T14:12:31;17.95;;;6.60;;
25988;SDS011;13778;48.236;9.894;2023-05-24T14:15:22;14.55;;;6.63;;
25988;SDS011;13778;48.236;9.894;2023-05-24T14:18:12;18.10;;;6.97;;
25988;SDS011;13778;48.236;9.894;2023-05-24T14:21:04;22.23;;;6.97;;
25988;SDS011;13778;48.236;9.894;2023-05-24T14:23:55;22.67;;;7.05;;
25988;SDS011;13778;48.236;9.894;2023-05-24T14:26:45;15.63;;;6.40;;
25988;SDS011;13778;48.236;9.894;2023-05-24T14:29:36;20.55;;;6.13;;
25988;SDS011;13778;48.236;9.894;2023-05-24T14:32:26;13.18;;;6.30;;
25988;SDS011;13778;48.236;9.894;2023-05-24T14:35:17;13.30;;;6.13;;
25988;SDS011;13778;48.236;9.894;2023-05-24T14:38:09;18.45;;;6.88;;
25988;SDS011;13778;48.236;9.894;2023-05-24T14:41:00;16.90;;;6.63;;
25988;SDS011;13778;48.236;9.894;2023-05-24T14:43:50;20.25;;;6.82;;
25988;SDS011;13778;48.236;9.894;2023-05-24T14:46:41;13.65;;;6.63;;
25988;SDS011;13778;48.236;9.894;2023-05-24T14:49:31;16.13;;;6.70;;
25988;SDS011;13778;48.236;9.894;2023-05-24T14:52:22;18.55;;;7.18;;
25988;SDS011;13778;48.236;9.894;2023-05-24T14:55:14;12.18;;;6.18;;
25988;SDS011;13778;48.236;9.894;2023-05-24T14:58:05;22.50;;;6.47;;
25988;SDS011;13778;48.236;9.894;2023-05-24T15:03:47;18.15;;;6.95;;
25988;SDS011;13778;48.236;9.894;2023-05-24T15:06:37;13.23;;;6.57;;
25988;SDS011;13778;48.236;9.894;2023-05-24T15:09:28;18.20;;;7.90;;
25988;SDS011;13778;48.236;9.894;2023-05-24T15:12:20;21.35;;;7.93;;
25988;SDS011;13778;48.236;9.894;2023-05-24T15:15:11;17.60;;;7.25;;
25988;SDS011;13778;48.236;9.894;2023-05-24T15:18:01;15.93;;;6.68;;
25988;SDS011;13778;48.236;9.894;2023-05-24T15:20:52;13.15;;;6.25;;
25988;SDS011;13778;48.236;9.894;2023-05-24T15:23:42;16.65;;;7.15;;
25988;SDS011;13778;48.236;9.894;2023-05-24T15:26:33;14.52;;;6.57;;
25988;SDS011;13778;48.236;9.894;2023-05-24T15:29:25;18.58;;;7.10;;
25988;SDS011;13778;48.236;9.894;2023-05-24T15:35:05;13.88;;;6.90;;
25988;SDS011;13778;48.236;9.894;2023-05-24T15:37:55;17.52;;;6.45;;
25988;SDS011;13778;48.236;9.894;2023-05-24T15:40:46;14.27;;;7.30;;
25988;SDS011;13778;48.236;9.894;2023-05-24T15:43:36;18.60;;;7.05;;
25988;SDS011;13778;48.236;9.894;2023-05-24T15:46:28;18.50;;;7.35;;
25988;SDS011;13778;48.236;9.894;2023-05-24T15:49:19;12.65;;;6.30;;
25988;SDS011;13778;48.236;9.894;2023-05-24T15:52:11;12.25;;;6.53;;
25988;SDS011;13778;48.236;9.894;2023-05-24T15:55:01;15.77;;;7.93;;
25988;SDS011;13778;48.236;9.894;2023-05-24T15:57:51;9.98;;;6.40;;
25988;SDS011;13778;48.236;9.894;2023-05-24T16:00:42;15.52;;;6.25;;
25988;SDS011;13778;48.236;9.894;2023-05-24T16:03:34;14.25;;;6.50;;
25988;SDS011;13778;48.236;9.894;2023-05-24T16:06:26;14.95;;;6.53;;
25988;SDS011;13778;48.236;9.894;2023-05-24T16:09:16;14.65;;;6.68;;
25988;SDS011;13778;48.236;9.894;2023-05-24T16:12:07;22.92;;;7.63;;
25988;SDS011;13778;48.236;9.894;2023-05-24T16:14:58;13.75;;;7.03;;
25988;SDS011;13778;48.236;9.894;2023-05-24T16:17:48;15.25;;;6.65;;
25988;SDS011;13778;48.236;9.894;2023-05-24T16:20:40;17.08;;;6.85;;
25988;SDS011;13778;48.236;9.894;2023-05-24T16:26:21;18.35;;;6.57;;
25988;SDS011;13778;48.236;9.894;2023-05-24T16:29:12;16.60;;;6.82;;
25988;SDS011;13778;48.236;9.894;2023-05-24T16:32:03;18.23;;;6.50;;
25988;SDS011;13778;48.236;9.894;2023-05-24T16:34:53;14.20;;;6.10;;
25988;SDS011;13778;48.236;9.894;2023-05-24T16:37:45;14.00;;;6.35;;
25988;SDS011;13778;48.236;9.894;2023-05-24T16:40:36;12.95;;;7.07;;
25988;SDS011;13778;48.236;9.894;2023-05-24T16:43:26;13.50;;;6.30;;
25988;SDS011;13778;48.236;9.894;2023-05-24T16:46:17;12.40;;;6.32;;
25988;SDS011;13778;48.236;9.894;2023-05-24T16:49:07;14.30;;;6.80;;
25988;SDS011;13778;48.236;9.894;2023-05-24T16:51:58;16.85;;;6.53;;
25988;SDS011;13778;48.236;9.894;2023-05-24T16:54:50;16.17;;;5.75;;
25988;SDS011;13778;48.236;9.894;2023-05-24T17:00:31;14.90;;;5.32;;
25988;SDS011;13778;48.236;9.894;2023-05-24T17:03:21;13.65;;;5.25;;
25988;SDS011;13778;48.236;9.894;2023-05-24T17:06:15;10.10;;;4.15;;
25988;SDS011;13778;48.236;9.894;2023-05-24T17:09:06;12.55;;;5.30;;
25988;SDS011;13778;48.236;9.894;2023-05-24T17:11:58;21.58;;;6.70;;
25988;SDS011;13778;48.236;9.894;2023-05-24T17:14:48;12.63;;;5.32;;
25988;SDS011;13778;48.236;9.894;2023-05-24T17:17:39;18.55;;;5.93;;
25988;SDS011;13778;48.236;9.894;2023-05-24T17:20:30;15.55;;;6.25;;
25988;SDS011;13778;48.236;9.894;2023-05-24T17:23:20;11.00;;;5.38;;
25988;SDS011;13778;48.236;9.894;2023-05-24T17:26:13;14.00;;;6.60;;
25988;SDS011;13778;48.236;9.894;2023-05-24T17:29:05;12.55;;;5.85;;
25988;SDS011;13778;48.236;9.894;2023-05-24T17:31:55;10.02;;;5.13;;
25988;SDS011;13778;48.236;9.894;2023-05-24T17:34:45;17.65;;;5.47;;
25988;SDS011;13778;48.236;9.894;2023-05-24T17:37:36;14.07;;;5.75;;
25988;SDS011;13778;48.236;9.894;2023-05-24T17:40:26;24.52;;;6.05;;
25988;SDS011;13778;48.236;9.894;2023-05-24T17:43:17;19.30;;;6.45;;
25988;SDS011;13778;48.236;9.894;2023-05-24T17:46:09;17.35;;;6.20;;
25988;SDS011;13778;48.236;9.894;2023-05-24T17:49:01;11.98;;;5.70;;
25988;SDS011;13778;48.236;9.894;2023-05-24T17:51:52;13.87;;;4.83;;
25988;SDS011;13778;48.236;9.894;2023-05-24T17:54:42;12.52;;;4.95;;
25988;SDS011;13778;48.236;9.894;2023-05-24T17:57:33;13.95;;;5.45;;